createdAt,value
2022-12-15T00:00:55.571Z,28.70
2022-12-15T00:01:55.479Z,31.60
2022-12-15T00:02:55.584Z,27.80
2022-12-15T00:03:55.422Z,25.30
2022-12-15T00:04:55.378Z,26.70
2022-12-15T00:05:55.347Z,26.40
2022-12-15T00:06:55.353Z,25.00
2022-12-15T00:07:55.286Z,26.10
2022-12-15T00:08:55.256Z,26.30
2022-12-15T00:09:55.225Z,24.50
2022-12-15T00:10:55.199Z,25.40
2022-12-15T00:11:55.167Z,26.00
2022-12-15T00:12:55.147Z,24.60
2022-12-15T00:13:55.111Z,26.50
2022-12-15T00:14:55.086Z,26.40
2022-12-15T00:15:55.129Z,25.10
2022-12-15T00:16:55.039Z,24.10
2022-12-15T00:17:55.022Z,25.60
2022-12-15T00:18:54.974Z,26.10
2022-12-15T00:19:54.945Z,23.90
2022-12-15T00:20:54.917Z,25.40
2022-12-15T00:21:54.883Z,26.30
2022-12-15T00:22:54.866Z,25.90
2022-12-15T00:23:54.825Z,25.40
2022-12-15T00:24:54.797Z,26.60
2022-12-15T00:25:54.771Z,26.90
2022-12-15T00:26:54.746Z,25.00
2022-12-15T00:27:54.715Z,26.90
2022-12-15T00:28:54.686Z,25.40
2022-12-15T00:29:54.660Z,23.40
2022-12-15T00:31:00.433Z,22.80
2022-12-15T00:31:54.628Z,25.00
2022-12-15T00:32:54.570Z,25.90
2022-12-15T00:33:54.566Z,24.00
2022-12-15T00:34:54.514Z,23.20
2022-12-15T00:35:54.478Z,24.00
2022-12-15T00:36:54.455Z,24.80
2022-12-15T00:37:54.429Z,27.40
2022-12-15T00:38:58.037Z,25.50
2022-12-15T00:39:54.373Z,24.00
2022-12-15T00:40:54.339Z,26.40
2022-12-15T00:41:54.310Z,24.40
2022-12-15T00:42:54.284Z,25.30
2022-12-15T00:43:54.251Z,26.40
2022-12-15T00:44:54.224Z,24.90
2022-12-15T00:45:54.192Z,28.10
2022-12-15T00:46:54.237Z,26.50
2022-12-15T00:47:54.138Z,26.10
2022-12-15T00:48:54.118Z,24.30
2022-12-15T00:49:54.102Z,22.50
2022-12-15T00:50:54.062Z,23.90
2022-12-15T00:51:54.023Z,24.90
2022-12-15T00:52:53.988Z,25.40
2022-12-15T00:53:53.964Z,25.10
2022-12-15T00:54:53.940Z,25.60
2022-12-15T00:55:53.905Z,25.70
2022-12-15T00:56:53.879Z,23.80
2022-12-15T00:57:53.848Z,23.10
2022-12-15T00:58:53.823Z,23.40
2022-12-15T00:59:53.796Z,22.90
2022-12-15T01:00:53.763Z,21.80
2022-12-15T01:01:53.957Z,23.20
2022-12-15T01:02:53.904Z,24.40
2022-12-15T01:03:53.952Z,24.70
2022-12-15T01:04:53.651Z,22.50
2022-12-15T01:05:53.668Z,23.80
2022-12-15T01:06:53.587Z,23.40
2022-12-15T01:07:53.563Z,24.60
2022-12-15T01:08:53.539Z,24.40
2022-12-15T01:09:53.502Z,23.70
2022-12-15T01:10:53.473Z,25.20
2022-12-15T01:11:53.443Z,24.40
2022-12-15T01:12:53.418Z,24.80
2022-12-15T01:13:53.386Z,25.10
2022-12-15T01:14:53.361Z,27.10
2022-12-15T01:15:53.399Z,24.50
2022-12-15T01:16:53.303Z,23.50
2022-12-15T01:17:53.273Z,24.30
2022-12-15T01:18:53.240Z,25.10
2022-12-15T01:19:53.214Z,25.50
2022-12-15T01:20:53.182Z,24.70
2022-12-15T01:21:53.175Z,25.20
2022-12-15T01:22:53.137Z,24.70
2022-12-15T01:23:53.092Z,28.50
2022-12-15T01:24:53.073Z,24.30
2022-12-15T01:25:53.039Z,23.60
2022-12-15T01:26:53.011Z,22.40
2022-12-15T01:27:52.986Z,27.00
2022-12-15T01:28:52.953Z,23.20
2022-12-15T01:29:52.922Z,26.40
2022-12-15T01:30:52.901Z,22.70
2022-12-15T01:31:52.952Z,25.30
2022-12-15T01:32:52.839Z,23.60
2022-12-15T01:33:52.804Z,26.50
2022-12-15T01:34:52.777Z,24.40
2022-12-15T01:35:52.746Z,24.90
2022-12-15T01:36:52.730Z,24.60
2022-12-15T01:37:52.746Z,24.70
2022-12-15T01:38:54.533Z,24.80
2022-12-15T01:39:52.631Z,23.70
2022-12-15T01:40:52.609Z,24.00
2022-12-15T01:41:52.577Z,23.50
2022-12-15T01:42:52.554Z,25.00
2022-12-15T01:43:52.520Z,23.90
2022-12-15T01:44:52.488Z,23.50
2022-12-15T01:45:52.457Z,25.60
2022-12-15T01:46:52.583Z,23.80
2022-12-15T01:47:52.398Z,25.20
2022-12-15T01:48:52.376Z,25.20
2022-12-15T01:49:52.345Z,26.30
2022-12-15T01:50:52.330Z,23.80
2022-12-15T01:51:52.284Z,23.10
2022-12-15T01:52:52.261Z,25.30
2022-12-15T01:53:52.258Z,22.20
2022-12-15T01:54:52.205Z,25.50
2022-12-15T01:55:52.174Z,24.80
2022-12-15T01:56:52.141Z,24.20
2022-12-15T01:57:52.112Z,23.40
2022-12-15T01:58:52.090Z,24.60
2022-12-15T01:59:52.053Z,26.70
2022-12-15T02:00:52.126Z,23.20
2022-12-15T02:01:52.168Z,22.50
2022-12-15T02:02:52.165Z,24.00
2022-12-15T02:03:51.935Z,22.60
2022-12-15T02:04:51.910Z,23.80
2022-12-15T02:05:51.879Z,22.80
2022-12-15T02:06:51.850Z,24.40
2022-12-15T02:07:51.817Z,22.90
2022-12-15T02:08:51.796Z,24.90
2022-12-15T02:09:51.785Z,21.40
2022-12-15T02:10:51.736Z,24.00
2022-12-15T02:11:51.700Z,27.20
2022-12-15T02:12:51.675Z,24.80
2022-12-15T02:13:51.646Z,23.70
2022-12-15T02:14:51.618Z,23.70
2022-12-15T02:15:51.656Z,24.80
2022-12-15T02:16:51.561Z,24.70
2022-12-15T02:17:51.532Z,23.50
2022-12-15T02:18:51.502Z,26.20
2022-12-15T02:19:51.479Z,25.70
2022-12-15T02:20:51.442Z,25.00
2022-12-15T02:21:51.413Z,23.30
2022-12-15T02:22:51.388Z,23.10
2022-12-15T02:23:51.356Z,23.60
2022-12-15T02:24:51.334Z,25.80
2022-12-15T02:25:51.336Z,25.80
2022-12-15T02:26:51.271Z,25.20
2022-12-15T02:27:51.238Z,25.80
2022-12-15T02:28:51.213Z,25.20
2022-12-15T02:29:51.181Z,26.60
2022-12-15T02:30:51.156Z,22.30
2022-12-15T02:31:51.208Z,25.10
2022-12-15T02:32:51.100Z,25.40
2022-12-15T02:33:51.063Z,25.40
2022-12-15T02:34:51.036Z,24.00
2022-12-15T02:35:51.004Z,23.10
2022-12-15T02:36:50.982Z,27.70
2022-12-15T02:37:50.950Z,23.20
2022-12-15T02:38:50.926Z,25.40
2022-12-15T02:39:50.891Z,27.90
2022-12-15T02:40:50.864Z,25.90
2022-12-15T02:41:50.854Z,27.60
2022-12-15T02:42:50.812Z,27.50
2022-12-15T02:43:50.774Z,28.10
2022-12-15T02:44:50.748Z,25.50
2022-12-15T02:45:50.769Z,24.60
2022-12-15T02:46:50.687Z,29.90
2022-12-15T02:47:50.656Z,25.20
2022-12-15T02:48:50.637Z,26.80
2022-12-15T02:49:50.600Z,28.30
2022-12-15T02:50:50.570Z,24.40
2022-12-15T02:51:50.542Z,27.10
2022-12-15T02:52:50.517Z,25.80
2022-12-15T02:53:50.487Z,25.30
2022-12-15T02:54:50.464Z,25.20
2022-12-15T02:55:50.573Z,24.20
2022-12-15T02:56:50.402Z,27.80
2022-12-15T02:57:50.483Z,25.50
2022-12-15T02:58:50.343Z,23.60
2022-12-15T02:59:50.313Z,23.90
2022-12-15T03:00:50.342Z,27.70
2022-12-15T03:01:50.455Z,28.50
2022-12-15T03:02:50.383Z,27.30
2022-12-15T03:03:50.194Z,26.20
2022-12-15T03:04:50.168Z,26.00
2022-12-15T03:05:50.134Z,26.20
2022-12-15T03:06:50.112Z,26.90
2022-12-15T03:07:50.076Z,27.10
2022-12-15T03:08:50.052Z,26.70
2022-12-15T03:09:50.016Z,27.90
2022-12-15T03:10:49.991Z,28.90
2022-12-15T03:11:49.958Z,24.60
2022-12-15T03:12:49.933Z,26.90
2022-12-15T03:13:49.977Z,26.80
2022-12-15T03:14:49.872Z,25.10
2022-12-15T03:15:49.845Z,24.80
2022-12-15T03:16:49.937Z,25.50
2022-12-15T03:17:49.783Z,23.50
2022-12-15T03:18:49.758Z,25.50
2022-12-15T03:19:49.849Z,29.10
2022-12-15T03:20:49.700Z,25.10
2022-12-15T03:21:49.666Z,24.20
2022-12-15T03:22:49.644Z,25.80
2022-12-15T03:23:49.611Z,26.50
2022-12-15T03:24:49.581Z,26.50
2022-12-15T03:25:49.859Z,26.50
2022-12-15T03:26:49.525Z,24.50
2022-12-15T03:27:49.493Z,25.20
2022-12-15T03:28:49.468Z,24.80
2022-12-15T03:29:49.564Z,25.70
2022-12-15T03:30:50.492Z,23.50
2022-12-15T03:31:49.909Z,24.40
2022-12-15T03:32:49.345Z,24.80
2022-12-15T03:33:49.316Z,24.20
2022-12-15T03:34:49.287Z,25.80
2022-12-15T03:35:49.264Z,25.60
2022-12-15T03:36:49.228Z,24.80
2022-12-15T03:37:49.696Z,25.00
2022-12-15T03:38:49.169Z,26.40
2022-12-15T03:39:49.147Z,24.40
2022-12-15T03:40:49.111Z,26.70
2022-12-15T03:41:49.085Z,23.50
2022-12-15T03:42:49.057Z,27.80
2022-12-15T03:43:49.772Z,24.20
2022-12-15T03:44:48.992Z,25.60
2022-12-15T03:45:49.096Z,26.00
2022-12-15T03:46:48.938Z,24.20
2022-12-15T03:47:48.909Z,24.50
2022-12-15T03:48:48.883Z,24.50
2022-12-15T03:49:48.847Z,26.30
2022-12-15T03:50:48.851Z,25.50
2022-12-15T03:51:48.798Z,24.10
2022-12-15T03:52:48.762Z,29.10
2022-12-15T03:53:48.733Z,28.20
2022-12-15T03:54:48.701Z,28.50
2022-12-15T03:55:48.673Z,26.30
2022-12-15T03:56:48.638Z,25.90
2022-12-15T03:57:48.614Z,29.80
2022-12-15T03:58:48.615Z,28.10
2022-12-15T03:59:48.554Z,29.20
2022-12-15T04:00:48.527Z,28.90
2022-12-15T04:01:48.650Z,27.90
2022-12-15T04:02:50.188Z,29.40
2022-12-15T04:03:48.545Z,28.50
2022-12-15T04:04:48.409Z,31.00
2022-12-15T04:05:48.388Z,29.70
2022-12-15T04:06:48.349Z,29.50
2022-12-15T04:07:48.326Z,28.50
2022-12-15T04:08:49.716Z,29.20
2022-12-15T04:09:48.266Z,28.40
2022-12-15T04:10:48.237Z,27.00
2022-12-15T04:11:48.211Z,28.10
2022-12-15T04:12:48.180Z,30.70
2022-12-15T04:13:48.144Z,30.00
2022-12-15T04:14:48.120Z,27.60
2022-12-15T04:15:48.094Z,30.60
2022-12-15T04:16:48.090Z,30.50
2022-12-15T04:17:48.054Z,28.50
2022-12-15T04:18:47.996Z,28.60
2022-12-15T04:19:47.974Z,28.90
2022-12-15T04:20:50.243Z,26.80
2022-12-15T04:21:47.915Z,29.00
2022-12-15T04:22:47.884Z,31.90
2022-12-15T04:23:47.856Z,29.40
2022-12-15T04:24:47.824Z,28.30
2022-12-15T04:25:47.795Z,29.00
2022-12-15T04:26:47.767Z,30.90
2022-12-15T04:27:47.736Z,31.60
2022-12-15T04:28:47.708Z,29.50
2022-12-15T04:29:47.680Z,33.00
2022-12-15T04:30:47.703Z,32.00
2022-12-15T04:31:47.621Z,29.60
2022-12-15T04:32:49.787Z,29.80
2022-12-15T04:33:47.587Z,27.20
2022-12-15T04:34:47.534Z,30.40
2022-12-15T04:35:49.933Z,30.40
2022-12-15T04:36:47.481Z,29.60
2022-12-15T04:37:47.447Z,30.10
2022-12-15T04:38:50.325Z,29.40
2022-12-15T04:39:47.391Z,32.70
2022-12-15T04:40:47.363Z,30.00
2022-12-15T04:41:47.331Z,30.50
2022-12-15T04:42:47.299Z,30.30
2022-12-15T04:43:47.276Z,29.60
2022-12-15T04:44:50.115Z,31.60
2022-12-15T04:45:47.243Z,29.10
2022-12-15T04:46:47.185Z,29.70
2022-12-15T04:47:47.158Z,29.70
2022-12-15T04:48:47.123Z,32.80
2022-12-15T04:49:47.119Z,29.60
2022-12-15T04:50:47.069Z,29.80
2022-12-15T04:51:47.046Z,29.00
2022-12-15T04:52:47.004Z,29.10
2022-12-15T04:53:46.977Z,28.60
2022-12-15T04:54:46.949Z,29.00
2022-12-15T04:55:46.921Z,27.20
2022-12-15T04:56:46.887Z,26.60
2022-12-15T04:57:46.864Z,29.10
2022-12-15T04:58:46.834Z,25.90
2022-12-15T04:59:46.808Z,26.80
2022-12-15T05:00:46.772Z,27.70
2022-12-15T05:01:46.927Z,30.90
2022-12-15T05:02:46.754Z,28.50
2022-12-15T05:03:46.690Z,29.60
2022-12-15T05:04:46.720Z,27.50
2022-12-15T05:05:46.654Z,28.00
2022-12-15T05:06:46.597Z,29.80
2022-12-15T05:07:46.567Z,25.20
2022-12-15T05:08:46.537Z,27.50
2022-12-15T05:09:46.506Z,28.70
2022-12-15T05:10:46.476Z,27.50
2022-12-15T05:11:46.454Z,29.90
2022-12-15T05:12:46.417Z,25.80
2022-12-15T05:13:46.396Z,26.80
2022-12-15T05:14:46.358Z,26.70
2022-12-15T05:15:46.405Z,31.90
2022-12-15T05:16:46.366Z,29.00
2022-12-15T05:17:46.325Z,27.30
2022-12-15T05:18:46.242Z,29.20
2022-12-15T05:19:46.220Z,30.10
2022-12-15T05:20:46.183Z,28.30
2022-12-15T05:21:46.191Z,30.10
2022-12-15T05:22:46.124Z,27.20
2022-12-15T05:23:46.100Z,30.50
2022-12-15T05:24:46.068Z,28.90
2022-12-15T05:25:46.041Z,28.30
2022-12-15T05:26:50.794Z,32.10
2022-12-15T05:27:45.984Z,29.50
2022-12-15T05:28:45.951Z,30.60
2022-12-15T05:29:45.922Z,29.80
2022-12-15T05:30:45.932Z,27.30
2022-12-15T05:31:45.863Z,29.20
2022-12-15T05:32:45.830Z,29.40
2022-12-15T05:33:45.811Z,32.90
2022-12-15T05:34:45.774Z,29.80
2022-12-15T05:35:45.745Z,31.10
2022-12-15T05:36:45.711Z,27.70
2022-12-15T05:37:45.713Z,30.30
2022-12-15T05:38:45.657Z,32.00
2022-12-15T05:39:45.634Z,27.30
2022-12-15T05:40:45.594Z,27.80
2022-12-15T05:41:45.571Z,31.60
2022-12-15T05:42:49.898Z,31.60
2022-12-15T05:43:45.514Z,26.80
2022-12-15T05:44:45.482Z,28.80
2022-12-15T05:45:45.451Z,30.60
2022-12-15T05:46:45.510Z,33.10
2022-12-15T05:47:45.395Z,29.90
2022-12-15T05:48:45.364Z,31.40
2022-12-15T05:49:45.338Z,29.70
2022-12-15T05:50:45.303Z,27.50
2022-12-15T05:51:45.276Z,28.70
2022-12-15T05:52:49.361Z,32.60
2022-12-15T05:53:45.250Z,28.30
2022-12-15T05:54:45.190Z,33.70
2022-12-15T05:55:45.159Z,33.50
2022-12-15T05:56:45.132Z,33.50
2022-12-15T05:57:45.097Z,31.70
2022-12-15T05:58:45.831Z,31.00
2022-12-15T05:59:45.041Z,31.60
2022-12-15T06:00:45.012Z,30.20
2022-12-15T06:01:45.149Z,29.70
2022-12-15T06:02:44.997Z,30.80
2022-12-15T06:03:44.925Z,31.90
2022-12-15T06:04:44.951Z,30.60
2022-12-15T06:05:44.864Z,31.20
2022-12-15T06:06:44.837Z,32.30
2022-12-15T06:07:44.823Z,32.20
2022-12-15T06:08:44.772Z,31.90
2022-12-15T06:09:44.774Z,31.30
2022-12-15T06:10:44.718Z,31.90
2022-12-15T06:11:44.696Z,32.80
2022-12-15T06:12:44.658Z,32.20
2022-12-15T06:13:44.633Z,29.50
2022-12-15T06:14:44.595Z,29.20
2022-12-15T06:15:44.599Z,32.40
2022-12-15T06:16:50.153Z,31.00
2022-12-15T06:17:44.510Z,30.50
2022-12-15T06:18:44.482Z,33.00
2022-12-15T06:19:44.455Z,31.90
2022-12-15T06:20:44.425Z,30.40
2022-12-15T06:21:44.402Z,31.60
2022-12-15T06:22:49.683Z,33.70
2022-12-15T06:23:44.344Z,32.10
2022-12-15T06:24:44.305Z,31.80
2022-12-15T06:25:44.297Z,33.30
2022-12-15T06:26:44.248Z,32.90
2022-12-15T06:27:44.222Z,31.30
2022-12-15T06:28:44.193Z,30.10
2022-12-15T06:29:44.163Z,34.30
2022-12-15T06:30:44.142Z,33.80
2022-12-15T06:31:44.179Z,32.30
2022-12-15T06:32:44.074Z,31.20
2022-12-15T06:33:44.046Z,29.40
2022-12-15T06:34:44.012Z,32.30
2022-12-15T06:35:43.980Z,34.00
2022-12-15T06:36:43.949Z,31.50
2022-12-15T06:37:43.923Z,31.60
2022-12-15T06:38:43.894Z,30.30
2022-12-15T06:39:43.881Z,35.60
2022-12-15T06:40:43.831Z,28.70
2022-12-15T06:41:43.833Z,32.40
2022-12-15T06:42:43.777Z,31.90
2022-12-15T06:43:43.751Z,33.60
2022-12-15T06:44:43.717Z,38.60
2022-12-15T06:45:43.694Z,31.10
2022-12-15T06:46:43.789Z,31.40
2022-12-15T06:47:43.631Z,31.50
2022-12-15T06:48:43.600Z,31.30
2022-12-15T06:49:43.573Z,30.40
2022-12-15T06:50:43.541Z,33.90
2022-12-15T06:51:43.516Z,31.50
2022-12-15T06:52:43.481Z,32.00
2022-12-15T06:53:43.451Z,37.00
2022-12-15T06:54:43.424Z,33.70
2022-12-15T06:55:43.402Z,32.70
2022-12-15T06:56:43.363Z,34.30
2022-12-15T06:57:43.359Z,35.20
2022-12-15T06:58:43.305Z,34.50
2022-12-15T06:59:43.278Z,35.60
2022-12-15T07:00:43.245Z,31.50
2022-12-15T07:01:43.512Z,33.90
2022-12-15T07:02:43.385Z,33.50
2022-12-15T07:03:43.374Z,32.10
2022-12-15T07:04:43.131Z,33.20
2022-12-15T07:05:43.104Z,37.80
2022-12-15T07:06:43.070Z,34.70
2022-12-15T07:07:43.118Z,35.70
2022-12-15T07:08:43.011Z,30.20
2022-12-15T07:09:42.987Z,36.20
2022-12-15T07:10:42.955Z,32.80
2022-12-15T07:11:42.927Z,33.10
2022-12-15T07:12:42.892Z,33.40
2022-12-15T07:13:42.897Z,36.50
2022-12-15T07:14:42.834Z,35.30
2022-12-15T07:15:42.935Z,32.00
2022-12-15T07:16:42.935Z,36.80
2022-12-15T07:17:42.752Z,35.60
2022-12-15T07:18:42.720Z,33.60
2022-12-15T07:19:42.691Z,32.40
2022-12-15T07:20:42.667Z,34.50
2022-12-15T07:21:42.657Z,38.80
2022-12-15T07:22:42.603Z,35.80
2022-12-15T07:23:58.650Z,35.90
2022-12-15T07:24:42.550Z,32.00
2022-12-15T07:25:42.521Z,33.90
2022-12-15T07:26:42.484Z,38.40
2022-12-15T07:27:42.458Z,35.60
2022-12-15T07:28:42.424Z,37.70
2022-12-15T07:29:42.415Z,36.40
2022-12-15T07:30:42.366Z,37.70
2022-12-15T07:31:42.450Z,41.40
2022-12-15T07:32:42.303Z,36.10
2022-12-15T07:33:42.281Z,35.90
2022-12-15T07:34:42.255Z,37.90
2022-12-15T07:35:42.217Z,39.50
2022-12-15T07:36:45.757Z,34.40
2022-12-15T07:37:42.168Z,34.20
2022-12-15T07:38:42.132Z,37.00
2022-12-15T07:39:42.102Z,36.60
2022-12-15T07:40:42.078Z,34.90
2022-12-15T07:41:42.047Z,36.60
2022-12-15T07:42:42.017Z,34.90
2022-12-15T07:43:41.985Z,38.20
2022-12-15T07:44:41.956Z,38.90
2022-12-15T07:45:45.544Z,37.60
2022-12-15T07:46:41.988Z,36.50
2022-12-15T07:47:41.874Z,35.50
2022-12-15T07:48:41.840Z,36.90
2022-12-15T07:49:41.814Z,37.40
2022-12-15T07:50:41.780Z,36.20
2022-12-15T07:51:41.757Z,40.20
2022-12-15T07:52:41.735Z,39.70
2022-12-15T07:53:41.694Z,38.20
2022-12-15T07:54:41.665Z,39.60
2022-12-15T07:56:05.629Z,39.10
2022-12-15T07:56:41.609Z,39.00
2022-12-15T07:57:41.576Z,33.10
2022-12-15T07:58:41.548Z,38.50
2022-12-15T07:59:41.519Z,37.30
2022-12-15T08:00:46.868Z,36.20
2022-12-15T08:01:41.639Z,38.80
2022-12-15T08:02:41.614Z,37.60
2022-12-15T08:03:41.829Z,40.60
2022-12-15T08:04:41.372Z,37.70
2022-12-15T08:05:41.345Z,43.70
2022-12-15T08:06:41.314Z,38.00
2022-12-15T08:07:41.287Z,33.70
2022-12-15T08:08:41.259Z,34.10
2022-12-15T08:09:41.229Z,37.80
2022-12-15T08:10:41.198Z,37.10
2022-12-15T08:11:41.170Z,35.30
2022-12-15T08:12:41.142Z,37.30
2022-12-15T08:14:41.079Z,34.60
2022-12-15T08:15:41.058Z,36.80
2022-12-15T08:16:41.133Z,35.10
2022-12-15T08:17:41.039Z,35.70
2022-12-15T08:18:40.966Z,33.80
2022-12-15T08:19:40.940Z,35.60
2022-12-15T08:20:40.911Z,37.10
2022-12-15T08:21:40.887Z,34.70
2022-12-15T08:22:40.863Z,38.00
2022-12-15T08:23:40.830Z,37.90
2022-12-15T08:24:40.795Z,34.70
2022-12-15T08:25:40.763Z,36.30
2022-12-15T08:26:40.740Z,36.20
2022-12-15T08:27:40.716Z,35.90
2022-12-15T08:28:40.691Z,37.20
2022-12-15T08:29:56.106Z,35.40
2022-12-15T08:30:40.629Z,37.30
2022-12-15T08:31:40.635Z,33.10
2022-12-15T08:32:40.569Z,38.90
2022-12-15T08:33:40.572Z,37.10
2022-12-15T08:34:40.516Z,33.80
2022-12-15T08:35:56.245Z,35.90
2022-12-15T08:36:40.462Z,33.50
2022-12-15T08:37:40.437Z,33.50
2022-12-15T08:38:40.407Z,34.50
2022-12-15T08:39:40.395Z,34.80
2022-12-15T08:40:40.359Z,32.90
2022-12-15T08:41:40.332Z,33.30
2022-12-15T08:42:40.306Z,34.30
2022-12-15T08:43:47.577Z,32.90
2022-12-15T08:44:40.255Z,29.40
2022-12-15T08:45:40.290Z,30.80
2022-12-15T08:46:40.209Z,30.70
2022-12-15T08:47:40.183Z,32.80
2022-12-15T08:48:40.157Z,31.50
2022-12-15T08:49:40.165Z,33.50
2022-12-15T08:50:40.110Z,31.10
2022-12-15T08:51:40.084Z,31.40
2022-12-15T08:52:40.061Z,32.00
2022-12-15T08:53:40.085Z,30.30
2022-12-15T08:54:40.015Z,29.60
2022-12-15T08:55:39.993Z,30.10
2022-12-15T08:56:39.972Z,30.20
2022-12-15T08:57:39.948Z,33.40
2022-12-15T08:58:39.940Z,29.20
2022-12-15T08:59:39.908Z,28.70
2022-12-15T09:00:39.882Z,32.90
2022-12-15T09:01:40.082Z,28.60
2022-12-15T09:02:39.917Z,30.10
2022-12-15T09:03:39.824Z,27.00
2022-12-15T09:04:39.827Z,31.70
2022-12-15T09:05:39.804Z,31.10
2022-12-15T09:06:39.764Z,30.50
2022-12-15T09:07:39.743Z,31.20
2022-12-15T09:08:39.724Z,30.70
2022-12-15T09:09:39.702Z,28.30
2022-12-15T09:10:39.684Z,31.70
2022-12-15T09:11:39.666Z,27.70
2022-12-15T09:12:39.652Z,27.90
2022-12-15T09:13:39.624Z,28.60
2022-12-15T09:14:39.606Z,28.30
2022-12-15T09:16:08.370Z,29.80
2022-12-15T09:16:39.655Z,32.10
2022-12-15T09:17:39.551Z,29.80
2022-12-15T09:18:39.531Z,28.80
2022-12-15T09:19:39.508Z,28.20
2022-12-15T09:20:39.498Z,29.10
2022-12-15T09:21:39.495Z,32.70
2022-12-15T09:22:39.457Z,30.20
2022-12-15T09:23:39.434Z,32.70
2022-12-15T09:24:39.424Z,28.30
2022-12-15T09:25:39.399Z,29.60
2022-12-15T09:26:39.388Z,27.80
2022-12-15T09:27:39.368Z,38.50
2022-12-15T09:28:39.382Z,29.00
2022-12-15T09:29:39.332Z,29.90
2022-12-15T09:30:39.339Z,29.10
2022-12-15T09:31:39.298Z,30.30
2022-12-15T09:32:39.281Z,31.80
2022-12-15T09:33:39.259Z,29.50
2022-12-15T09:34:39.243Z,30.40
2022-12-15T09:35:39.231Z,32.80
2022-12-15T09:36:39.211Z,32.70
2022-12-15T09:37:39.313Z,28.50
2022-12-15T09:38:39.172Z,33.80
2022-12-15T09:39:39.155Z,26.70
2022-12-15T09:40:39.139Z,28.00
2022-12-15T09:41:39.123Z,28.50
2022-12-15T09:42:39.114Z,27.20
2022-12-15T09:43:44.806Z,25.50
2022-12-15T09:44:39.349Z,31.40
2022-12-15T09:45:39.088Z,29.80
2022-12-15T09:46:39.142Z,30.40
2022-12-15T09:47:39.027Z,30.40
2022-12-15T09:48:39.013Z,29.00
2022-12-15T09:49:38.996Z,27.80
2022-12-15T09:50:38.977Z,35.70
2022-12-15T09:51:38.965Z,25.50
2022-12-15T09:52:38.942Z,32.50
2022-12-15T09:53:55.819Z,30.80
2022-12-15T09:54:39.031Z,29.40
2022-12-15T09:55:38.892Z,28.90
2022-12-15T09:56:38.879Z,34.20
2022-12-15T09:57:38.855Z,28.80
2022-12-15T09:58:38.846Z,31.40
2022-12-15T09:59:38.827Z,29.50
2022-12-15T10:00:38.817Z,28.90
2022-12-15T10:01:38.822Z,31.80
2022-12-15T10:02:38.800Z,26.60
2022-12-15T10:03:39.460Z,33.50
2022-12-15T10:04:38.754Z,30.80
2022-12-15T10:06:06.934Z,28.60
2022-12-15T10:06:38.715Z,29.20
2022-12-15T10:07:38.701Z,26.40
2022-12-15T10:08:38.683Z,31.10
2022-12-15T10:09:38.686Z,29.30
2022-12-15T10:10:38.652Z,31.20
2022-12-15T10:11:38.639Z,31.90
2022-12-15T10:12:43.560Z,26.60
2022-12-15T10:13:38.605Z,31.50
2022-12-15T10:14:38.585Z,29.40
2022-12-15T10:15:38.600Z,27.70
2022-12-15T10:16:38.557Z,29.50
2022-12-15T10:17:38.543Z,31.60
2022-12-15T10:18:38.519Z,31.10
2022-12-15T10:19:38.520Z,30.90
2022-12-15T10:20:38.483Z,33.70
2022-12-15T10:21:38.475Z,32.30
2022-12-15T10:22:38.453Z,30.30
2022-12-15T10:23:38.479Z,28.70
2022-12-15T10:25:08.706Z,26.90
2022-12-15T10:25:38.445Z,28.10
2022-12-15T10:26:38.388Z,29.90
2022-12-15T10:27:38.373Z,29.10
2022-12-15T10:28:38.361Z,26.80
2022-12-15T10:29:38.358Z,31.20
2022-12-15T10:30:38.384Z,28.90
2022-12-15T10:31:38.305Z,29.40
2022-12-15T10:32:42.762Z,27.80
2022-12-15T10:33:38.276Z,24.30
2022-12-15T10:34:38.364Z,31.20
2022-12-15T10:35:38.242Z,27.70
2022-12-15T10:36:38.223Z,32.40
2022-12-15T10:37:38.209Z,27.90
2022-12-15T10:38:38.201Z,27.50
2022-12-15T10:39:38.176Z,31.60
2022-12-15T10:40:38.160Z,27.80
2022-12-15T10:41:38.169Z,28.50
2022-12-15T10:42:38.127Z,29.90
2022-12-15T10:43:38.231Z,26.80
2022-12-15T10:44:38.096Z,30.10
2022-12-15T10:45:38.075Z,24.70
2022-12-15T10:46:38.113Z,28.80
2022-12-15T10:47:38.040Z,30.60
2022-12-15T10:48:38.024Z,27.90
2022-12-15T10:49:38.005Z,30.50
2022-12-15T10:50:37.993Z,30.30
2022-12-15T10:51:37.973Z,28.60
2022-12-15T10:52:37.957Z,31.20
2022-12-15T10:53:37.939Z,30.70
2022-12-15T10:54:37.920Z,29.50
2022-12-15T10:55:37.907Z,27.40
2022-12-15T10:56:37.889Z,26.20
2022-12-15T10:57:37.901Z,28.10
2022-12-15T10:58:37.856Z,28.20
2022-12-15T10:59:37.843Z,32.80
2022-12-15T11:00:37.819Z,33.00
2022-12-15T11:01:37.886Z,30.00
2022-12-15T11:02:38.175Z,28.10
2022-12-15T11:03:38.683Z,30.60
2022-12-15T11:04:37.843Z,28.70
2022-12-15T11:05:37.726Z,27.90
2022-12-15T11:06:37.711Z,31.30
2022-12-15T11:07:37.698Z,30.20
2022-12-15T11:08:37.674Z,30.00
2022-12-15T11:09:37.662Z,29.20
2022-12-15T11:10:37.636Z,31.50
2022-12-15T11:11:37.619Z,28.70
2022-12-15T11:12:37.607Z,30.40
2022-12-15T11:13:38.137Z,30.40
2022-12-15T11:14:37.581Z,28.10
2022-12-15T11:15:37.615Z,28.10
2022-12-15T11:16:37.527Z,27.90
2022-12-15T11:17:37.507Z,32.70
2022-12-15T11:18:37.494Z,33.20
2022-12-15T11:19:37.468Z,29.30
2022-12-15T11:20:37.447Z,30.70
2022-12-15T11:21:37.428Z,29.40
2022-12-15T11:22:37.407Z,30.90
2022-12-15T11:23:37.391Z,28.90
2022-12-15T11:24:37.367Z,30.20
2022-12-15T11:25:37.353Z,32.90
2022-12-15T11:26:37.348Z,27.50
2022-12-15T11:27:37.314Z,27.50
2022-12-15T11:28:37.293Z,27.90
2022-12-15T11:29:37.296Z,32.30
2022-12-15T11:30:37.249Z,29.90
2022-12-15T11:31:37.237Z,29.70
2022-12-15T11:32:37.212Z,28.60
2022-12-15T11:33:37.199Z,30.60
2022-12-15T11:34:37.175Z,27.60
2022-12-15T11:35:37.157Z,26.10
2022-12-15T11:36:37.134Z,28.50
2022-12-15T11:37:37.228Z,29.40
2022-12-15T11:38:37.122Z,29.70
2022-12-15T11:39:37.071Z,30.90
2022-12-15T11:40:37.051Z,29.90
2022-12-15T11:41:37.033Z,28.40
2022-12-15T11:42:37.010Z,30.80
2022-12-15T11:43:37.199Z,27.50
2022-12-15T11:44:36.971Z,26.50
2022-12-15T11:45:36.990Z,28.20
2022-12-15T11:46:36.934Z,29.10
2022-12-15T11:47:36.908Z,29.10
2022-12-15T11:48:36.894Z,25.70
2022-12-15T11:49:41.114Z,27.20
2022-12-15T11:50:36.859Z,28.10
2022-12-15T11:51:36.836Z,29.50
2022-12-15T11:52:36.815Z,30.20
2022-12-15T11:53:36.836Z,31.10
2022-12-15T11:54:36.773Z,29.30
2022-12-15T11:55:41.289Z,27.60
2022-12-15T11:56:36.734Z,26.70
2022-12-15T11:57:36.719Z,32.40
2022-12-15T11:58:36.751Z,28.40
2022-12-15T11:59:36.680Z,29.80
2022-12-15T12:00:36.666Z,29.30
2022-12-15T12:01:36.725Z,28.70
2022-12-15T12:02:36.770Z,25.40
2022-12-15T12:03:36.614Z,27.00
2022-12-15T12:04:36.583Z,26.40
2022-12-15T12:05:36.565Z,26.20
2022-12-15T12:06:36.548Z,27.80
2022-12-15T12:07:41.787Z,27.10
2022-12-15T12:08:36.587Z,26.40
2022-12-15T12:09:36.491Z,25.30
2022-12-15T12:10:36.469Z,27.90
2022-12-15T12:11:36.697Z,28.90
2022-12-15T12:12:36.430Z,26.50
2022-12-15T12:13:36.408Z,27.50
2022-12-15T12:14:36.392Z,25.10
2022-12-15T12:15:36.373Z,24.20
2022-12-15T12:16:36.352Z,26.30
2022-12-15T12:17:36.368Z,28.50
2022-12-15T12:18:36.539Z,27.40
2022-12-15T12:19:36.321Z,26.50
2022-12-15T12:20:36.277Z,24.70
2022-12-15T12:21:36.255Z,24.30
2022-12-15T12:22:36.238Z,28.70
2022-12-15T12:23:36.217Z,25.50
2022-12-15T12:24:36.198Z,25.20
2022-12-15T12:25:36.187Z,25.40
2022-12-15T12:26:36.168Z,25.20
2022-12-15T12:27:36.145Z,25.30
2022-12-15T12:28:36.290Z,27.20
2022-12-15T12:29:36.099Z,29.00
2022-12-15T12:30:36.083Z,28.20
2022-12-15T12:31:36.068Z,31.00
2022-12-15T12:32:36.043Z,26.20
2022-12-15T12:33:36.043Z,28.20
2022-12-15T12:34:36.007Z,24.70
2022-12-15T12:35:35.984Z,28.10
2022-12-15T12:36:35.961Z,26.60
2022-12-15T12:37:35.941Z,27.00
2022-12-15T12:38:36.218Z,26.30
2022-12-15T12:39:35.898Z,25.60
2022-12-15T12:40:35.879Z,26.50
2022-12-15T12:41:35.859Z,26.80
2022-12-15T12:42:35.834Z,26.70
2022-12-15T12:43:36.323Z,30.40
2022-12-15T12:44:35.792Z,26.60
2022-12-15T12:45:35.770Z,26.90
2022-12-15T12:46:35.748Z,29.90
2022-12-15T12:47:35.727Z,27.90
2022-12-15T12:48:35.706Z,26.70
2022-12-15T12:49:35.708Z,33.70
2022-12-15T12:50:35.664Z,33.10
2022-12-15T12:51:35.640Z,34.00
2022-12-15T12:52:35.627Z,32.60
2022-12-15T12:53:36.162Z,27.20